Dakar, Senegal

12:54 AM GMT on February 25, 2017 (GMT +0000)
Unnamed Road | | Change Station

Elev 75 ft 14.73 °N, 17.49 °W | Updated 15 seconds ago

Clear
Clear
68.5 °F
Feels Like 68.5 °F
N
7.5
Wind Variable Wind from NE
Gusts 11.8 mph

Today
High -- | Low -- °F
--% Chance of Precip.
Yesterday
High -- | Low -- °F
Precip. -- in
Pressure 29.92 in
Visibility -9999.0 miles
Clouds
Dew Point 60 °F
Humidity 73%
Rainfall Not available.
Snow Depth Not available.
7:28 AM 7:17 PM
Waning Crescent, 3% visible
METAR GOOY 250030Z 02012KT CAVOK 20/15 Q1013 NOSIG
Pressure 29.92 in
Visibility -9999.0 miles
Clouds
Dew Point 60 °F
Humidity 73%
Rainfall Not available.
Snow Depth Not available.
7:28 AM 7:17 PM
Waning Crescent, 3% visible
METAR GOOY 250030Z 02012KT CAVOK 20/15 Q1013 NOSIG

Get Your Daily Forecast Email!

Thanks for signing up!

Be on the lookout for a verification email in your inbox.

You'll start receiving the daily forecast at 8 AM.

×

10-Day Weather Forecast

No radar image for this location.
×

Almanac

Astronomy

Feb. 25, 2017 Rise Set
Actual Time
Civil Twilight
Nautical Twilight
Astronomical Twilight
Moon
Length of Visible Light
Length of Day
Tomorrow will be .
, % of the Moon is Illuminated

Today's Extremes

Country Highs Country Lows

Community

WunderPhotos

Upload Photos

1,962,540 photos uploaded!

WunderBlog® & News

Nearby

Air Quality

  Air Quality AQ Index Pollutant
Not available.

Snow Depth

Station Depth Elevation

Earthquake Activity

City Distance Mag. Time & Date
Minimum magnitude displayed is 2.5.

Coastal Water Temperatures

Place Temperature

Stations

Nearby Weather Stations

Station Location Temp. Windchill Dew Point Humidity Wind Precip. Elev Updated Type